createdAt,value
2023-03-05T00:01:13.541Z,55.11
2023-03-05T00:04:10.967Z,55.18
2023-03-05T00:07:12.570Z,55.22
2023-03-05T00:10:10.001Z,55.27
2023-03-05T00:13:08.386Z,55.20
2023-03-05T00:16:05.929Z,55.22
2023-03-05T00:19:03.742Z,55.23
2023-03-05T00:22:01.493Z,55.21
2023-03-05T00:24:58.953Z,55.24
2023-03-05T00:27:57.164Z,55.27
2023-03-05T00:30:54.651Z,55.31
2023-03-05T00:33:52.319Z,55.37
2023-03-05T00:36:49.799Z,55.48
2023-03-05T00:39:47.508Z,55.52
2023-03-05T00:42:44.984Z,55.58
2023-03-05T00:45:42.800Z,55.62
2023-03-05T00:48:40.474Z,55.62
2023-03-05T00:51:37.929Z,55.67
2023-03-05T00:54:35.714Z,55.71
2023-03-05T00:57:33.196Z,55.75
2023-03-05T01:00:30.924Z,55.82
2023-03-05T01:03:28.420Z,55.90
2023-03-05T01:06:26.238Z,55.96
2023-03-05T01:09:25.665Z,56.00
2023-03-05T01:12:23.103Z,56.07
2023-03-05T01:15:22.007Z,56.14
2023-03-05T01:18:19.471Z,56.19
2023-03-05T01:21:17.217Z,56.21
2023-03-05T01:24:14.641Z,56.33
2023-03-05T01:27:12.252Z,56.40
2023-03-05T01:30:09.693Z,56.45
2023-03-05T01:33:07.322Z,56.51
2023-03-05T01:36:04.837Z,56.64
2023-03-05T01:39:03.091Z,56.70
2023-03-05T01:42:00.880Z,56.77
2023-03-05T01:44:58.328Z,56.75
2023-03-05T01:47:55.943Z,56.85
2023-03-05T01:50:53.391Z,56.91
2023-03-05T01:53:51.031Z,56.91
2023-03-05T01:56:48.463Z,57.03
2023-03-05T01:59:46.257Z,57.05
2023-03-05T02:02:43.911Z,57.16
2023-03-05T02:05:42.392Z,57.20
2023-03-05T02:08:40.026Z,57.26
2023-03-05T02:11:37.496Z,57.38
2023-03-05T02:14:35.281Z,57.51
2023-03-05T02:17:32.738Z,57.58
2023-03-05T02:20:30.451Z,57.67
2023-03-05T02:23:27.932Z,57.95
2023-03-05T02:26:26.467Z,58.24
2023-03-05T02:29:23.914Z,58.47
2023-03-05T02:32:21.648Z,58.56
2023-03-05T02:35:19.445Z,58.56
2023-03-05T02:38:16.915Z,58.58
2023-03-05T02:41:14.700Z,58.59
2023-03-05T02:44:12.385Z,58.58
2023-03-05T02:47:09.886Z,58.58
2023-03-05T02:50:07.585Z,58.52
2023-03-05T02:53:05.078Z,58.54
2023-03-05T02:56:02.955Z,58.56
2023-03-05T02:59:00.456Z,58.59
2023-03-05T03:01:58.106Z,58.60
2023-03-05T03:04:55.561Z,58.61
2023-03-05T03:07:53.227Z,58.70
2023-03-05T03:10:51.668Z,58.65
2023-03-05T03:13:49.140Z,58.69
2023-03-05T03:16:46.788Z,58.69
2023-03-05T03:19:44.264Z,58.71
2023-03-05T03:22:42.521Z,58.74
2023-03-05T03:25:39.987Z,58.79
2023-03-05T03:28:37.700Z,58.81
2023-03-05T03:31:35.170Z,58.86
2023-03-05T03:34:32.996Z,58.90
2023-03-05T03:37:30.444Z,58.95
2023-03-05T03:40:28.226Z,58.97
2023-03-05T03:43:25.913Z,59.01
2023-03-05T03:46:23.460Z,59.08
2023-03-05T03:49:21.395Z,59.08
2023-03-05T03:52:18.868Z,59.13
2023-03-05T03:55:16.636Z,59.15
2023-03-05T03:58:14.102Z,59.13
2023-03-05T04:01:11.858Z,59.17
2023-03-05T04:04:09.750Z,59.26
2023-03-05T04:07:07.582Z,59.29
2023-03-05T04:10:05.373Z,59.30
2023-03-05T04:13:02.805Z,59.36
2023-03-05T04:16:00.647Z,59.35
2023-03-05T04:18:58.097Z,59.43
2023-03-05T04:21:55.697Z,59.51
2023-03-05T04:24:53.162Z,59.62
2023-03-05T04:27:50.837Z,59.63
2023-03-05T04:30:48.330Z,59.69
2023-03-05T04:33:45.938Z,59.72
2023-03-05T04:36:43.387Z,59.69
2023-03-05T04:39:41.051Z,59.72
2023-03-05T04:42:38.728Z,59.71
2023-03-05T04:45:37.238Z,59.75
2023-03-05T04:48:34.878Z,59.80
2023-03-05T04:51:32.316Z,59.80
2023-03-05T04:54:29.950Z,59.77
2023-03-05T04:57:27.405Z,59.82
2023-03-05T05:00:25.123Z,59.89
2023-03-05T05:03:22.600Z,60.00
2023-03-05T05:06:20.357Z,60.17
2023-03-05T05:09:18.133Z,60.21
2023-03-05T05:12:15.618Z,60.29
2023-03-05T05:15:13.351Z,60.35
2023-03-05T05:18:10.808Z,60.41
2023-03-05T05:21:08.592Z,60.59
2023-03-05T05:24:06.037Z,60.70
2023-03-05T05:27:03.808Z,60.73
2023-03-05T05:30:01.249Z,60.84
2023-03-05T05:32:58.886Z,60.97
2023-03-05T05:35:56.517Z,61.07
2023-03-05T05:38:53.973Z,61.11
2023-03-05T05:41:51.720Z,61.19
2023-03-05T05:44:49.172Z,61.33
2023-03-05T05:47:46.910Z,61.34
2023-03-05T05:50:44.356Z,61.30
2023-03-05T05:53:42.089Z,61.33
2023-03-05T05:56:39.503Z,61.32
2023-03-05T05:59:37.868Z,61.31
2023-03-05T06:02:35.298Z,61.27
2023-03-05T06:05:32.919Z,61.20
2023-03-05T06:08:30.381Z,61.20
2023-03-05T06:11:28.010Z,61.17
2023-03-05T06:14:25.754Z,61.11
2023-03-05T06:17:30.362Z,61.13
2023-03-05T06:20:28.754Z,61.18
2023-03-05T06:23:26.192Z,61.17
2023-03-05T06:26:23.652Z,61.20
2023-03-05T06:29:21.116Z,61.21
2023-03-05T06:32:18.777Z,61.20
2023-03-05T06:35:16.233Z,61.26
2023-03-05T06:38:13.986Z,61.28
2023-03-05T06:41:11.614Z,61.30
2023-03-05T06:44:09.349Z,61.30
2023-03-05T06:47:07.037Z,61.29
2023-03-05T06:50:04.480Z,61.22
2023-03-05T06:53:02.347Z,61.21
2023-03-05T06:55:59.822Z,61.19
2023-03-05T06:58:57.890Z,61.17
2023-03-05T07:01:55.326Z,61.12
2023-03-05T07:04:52.968Z,61.03
2023-03-05T07:07:50.424Z,60.97
2023-03-05T07:10:48.123Z,60.92
2023-03-05T07:13:47.911Z,60.83
2023-03-05T07:16:45.684Z,60.76
2023-03-05T07:19:44.003Z,60.64
2023-03-05T07:22:41.744Z,60.60
2023-03-05T07:25:39.515Z,60.51
2023-03-05T07:28:36.983Z,60.41
2023-03-05T07:31:34.768Z,60.30
2023-03-05T07:34:32.213Z,60.26
2023-03-05T07:37:29.881Z,60.20
2023-03-05T07:40:27.340Z,60.11
2023-03-05T07:43:25.017Z,60.03
2023-03-05T07:46:24.085Z,59.92
2023-03-05T07:49:22.706Z,59.81
2023-03-05T07:52:20.363Z,59.70
2023-03-05T07:55:17.821Z,59.58
2023-03-05T07:58:15.766Z,59.42
2023-03-05T08:01:14.580Z,59.33
2023-03-05T08:04:12.758Z,59.17
2023-03-05T08:07:10.258Z,59.02
2023-03-05T08:10:07.974Z,58.85
2023-03-05T08:13:05.441Z,58.63
2023-03-05T08:16:03.297Z,58.47
2023-03-05T08:19:00.964Z,58.33
2023-03-05T08:21:58.401Z,58.22
2023-03-05T08:24:56.097Z,58.11
2023-03-05T08:27:53.588Z,58.07
2023-03-05T08:30:51.436Z,57.92
2023-03-05T08:33:48.974Z,57.78
2023-03-05T08:36:48.363Z,57.63
2023-03-05T08:39:45.823Z,57.51
2023-03-05T08:42:43.658Z,57.50
2023-03-05T08:45:41.373Z,57.40
2023-03-05T08:48:38.941Z,57.28
2023-03-05T08:51:37.321Z,57.14
2023-03-05T08:54:34.777Z,56.87
2023-03-05T08:57:32.649Z,56.78
2023-03-05T09:00:30.108Z,56.69
2023-03-05T09:03:27.897Z,56.54
2023-03-05T09:06:25.437Z,56.41
2023-03-05T09:09:23.512Z,56.36
2023-03-05T09:12:21.380Z,56.20
2023-03-05T09:15:18.945Z,55.84
2023-03-05T09:18:16.813Z,55.62
2023-03-05T09:21:14.258Z,55.31
2023-03-05T09:24:12.107Z,54.90
2023-03-05T09:27:09.559Z,54.42
2023-03-05T09:30:09.637Z,53.98
2023-03-05T09:33:07.112Z,53.59
2023-03-05T09:36:05.054Z,53.40
2023-03-05T09:39:02.724Z,53.22
2023-03-05T09:42:00.171Z,52.92
2023-03-05T09:44:57.772Z,52.48
2023-03-05T09:47:55.258Z,51.92
2023-03-05T09:50:53.064Z,51.01
2023-03-05T09:53:50.498Z,50.67
2023-03-05T09:56:48.206Z,50.18
2023-03-05T09:59:46.039Z,49.23
2023-03-05T10:02:43.496Z,48.90
2023-03-05T10:05:41.229Z,48.31
2023-03-05T10:08:38.683Z,46.88
2023-03-05T10:11:36.379Z,44.81
2023-03-05T10:14:34.092Z,43.61
2023-03-05T10:17:33.714Z,42.44
2023-03-05T10:20:31.345Z,41.15
2023-03-05T10:23:29.726Z,40.35
2023-03-05T10:26:27.765Z,40.23
2023-03-05T10:29:25.786Z,40.14
2023-03-05T10:32:24.722Z,39.90
2023-03-05T10:35:22.654Z,39.72
2023-03-05T10:38:20.755Z,39.48
2023-03-05T10:41:18.433Z,39.16
2023-03-05T10:44:16.886Z,38.99
2023-03-05T10:47:14.747Z,38.71
2023-03-05T10:50:12.659Z,38.88
2023-03-05T10:53:10.431Z,39.08
2023-03-05T10:56:08.551Z,39.20
2023-03-05T10:59:06.102Z,39.34
2023-03-05T11:02:04.220Z,39.61
2023-03-05T11:05:05.140Z,39.13
2023-03-05T11:08:04.226Z,38.33
2023-03-05T11:11:03.882Z,37.44
2023-03-05T11:14:02.759Z,36.70
2023-03-05T11:17:01.159Z,36.53
2023-03-05T11:19:59.194Z,36.42
2023-03-05T11:22:57.159Z,36.17
2023-03-05T11:25:54.954Z,35.83
2023-03-05T11:28:53.318Z,36.03
2023-03-05T11:31:50.926Z,36.39
2023-03-05T11:34:48.666Z,36.73
2023-03-05T11:37:46.125Z,36.95
2023-03-05T11:40:45.974Z,37.10
2023-03-05T11:43:44.232Z,37.18
2023-03-05T11:46:42.094Z,37.33
2023-03-05T11:49:40.341Z,37.43
2023-03-05T11:52:37.873Z,37.65
2023-03-05T11:55:35.575Z,37.72
2023-03-05T11:58:35.066Z,38.08
2023-03-05T12:01:33.806Z,38.40
2023-03-05T12:04:31.696Z,38.82
2023-03-05T12:07:29.394Z,39.13
2023-03-05T12:10:27.266Z,39.59
2023-03-05T12:13:25.397Z,40.11
2023-03-05T12:16:25.210Z,40.47
2023-03-05T12:19:24.552Z,40.89
2023-03-05T12:22:23.166Z,41.45
2023-03-05T12:25:20.813Z,41.96
2023-03-05T12:28:20.019Z,42.22
2023-03-05T12:31:17.698Z,42.30
2023-03-05T12:34:15.390Z,42.23
2023-03-05T12:37:13.739Z,41.82
2023-03-05T12:40:13.047Z,41.32
2023-03-05T12:43:10.507Z,41.29
2023-03-05T12:46:09.123Z,41.47
2023-03-05T12:49:06.873Z,41.73
2023-03-05T12:52:05.361Z,41.83
2023-03-05T12:55:04.140Z,41.97
2023-03-05T12:58:02.150Z,42.11
2023-03-05T13:01:03.419Z,42.51
2023-03-05T13:04:01.153Z,42.92
2023-03-05T13:06:59.690Z,43.15
2023-03-05T13:10:01.038Z,43.30
2023-03-05T13:12:58.791Z,43.31
2023-03-05T13:15:58.740Z,43.48
2023-03-05T13:18:57.348Z,43.67
2023-03-05T13:21:55.883Z,43.83
2023-03-05T13:24:54.082Z,44.09
2023-03-05T13:27:52.958Z,44.33
2023-03-05T13:30:52.354Z,44.47
2023-03-05T13:33:52.994Z,44.61
2023-03-05T13:36:52.031Z,44.76
2023-03-05T13:39:50.921Z,44.91
2023-03-05T13:42:49.958Z,45.05
2023-03-05T13:45:47.889Z,45.02
2023-03-05T13:48:45.661Z,45.00
2023-03-05T13:51:44.009Z,45.00
2023-03-05T13:54:41.918Z,45.08
2023-03-05T13:57:41.803Z,45.18
2023-03-05T14:00:42.880Z,45.22
2023-03-05T14:03:40.923Z,45.26
2023-03-05T14:06:38.507Z,45.33
2023-03-05T14:09:36.991Z,45.38
2023-03-05T14:12:36.088Z,45.42
2023-03-05T14:15:37.591Z,45.54
2023-03-05T14:18:36.785Z,45.70
2023-03-05T14:21:35.376Z,45.88
2023-03-05T14:24:37.069Z,46.01
2023-03-05T14:27:35.466Z,46.09
2023-03-05T14:30:36.006Z,46.14
2023-03-05T14:33:34.990Z,46.17
2023-03-05T14:36:34.386Z,46.28
2023-03-05T14:39:34.617Z,46.33
2023-03-05T14:42:33.309Z,46.38
2023-03-05T14:45:32.740Z,46.45
2023-03-05T14:48:31.501Z,46.48
2023-03-05T14:51:31.321Z,46.62
2023-03-05T14:54:30.009Z,46.59
2023-03-05T14:57:29.315Z,46.58
2023-03-05T15:00:29.484Z,46.57
2023-03-05T15:03:28.833Z,46.50
2023-03-05T15:06:27.747Z,46.50
2023-03-05T15:09:27.549Z,46.51
2023-03-05T15:12:26.856Z,46.55
2023-03-05T15:15:25.024Z,46.63
2023-03-05T15:18:22.786Z,46.62
2023-03-05T15:21:21.480Z,46.69
2023-03-05T15:24:32.765Z,46.70
2023-03-05T15:27:31.758Z,46.70
2023-03-05T15:30:31.273Z,46.78
2023-03-05T15:33:34.193Z,46.80
2023-03-05T15:36:33.823Z,46.83
2023-03-05T15:39:37.593Z,46.88
2023-03-05T15:42:36.229Z,46.85
2023-03-05T15:45:34.857Z,46.92
2023-03-05T15:48:33.339Z,47.08
2023-03-05T15:51:34.055Z,47.18
2023-03-05T15:54:35.328Z,47.30
2023-03-05T15:57:34.594Z,47.33
2023-03-05T16:00:34.064Z,47.35
2023-03-05T16:03:33.004Z,47.36
2023-03-05T16:06:34.541Z,47.43
2023-03-05T16:09:33.688Z,47.50
2023-03-05T16:12:33.199Z,47.52
2023-03-05T16:15:34.540Z,47.59
2023-03-05T16:18:34.952Z,47.61
2023-03-05T16:21:38.273Z,47.68
2023-03-05T16:24:37.546Z,47.74
2023-03-05T16:27:37.319Z,47.79
2023-03-05T16:30:36.456Z,47.90
2023-03-05T16:33:35.906Z,47.91
2023-03-05T16:36:38.279Z,47.99
2023-03-05T16:39:37.779Z,48.00
2023-03-05T16:42:37.823Z,48.09
2023-03-05T16:45:38.475Z,48.25
2023-03-05T16:48:40.876Z,48.33
2023-03-05T16:51:40.816Z,48.41
2023-03-05T16:54:41.607Z,48.47
2023-03-05T16:57:40.670Z,48.63
2023-03-05T17:00:41.335Z,48.59
2023-03-05T17:03:42.457Z,48.50
2023-03-05T17:06:41.648Z,48.57
2023-03-05T17:09:40.538Z,48.69
2023-03-05T17:12:40.947Z,48.71
2023-03-05T17:15:39.152Z,48.83
2023-03-05T17:18:38.245Z,48.92
2023-03-05T17:21:36.426Z,48.79
2023-03-05T17:24:37.084Z,48.72
2023-03-05T17:27:37.136Z,48.70
2023-03-05T17:30:38.114Z,48.73
2023-03-05T17:33:38.386Z,48.74
2023-03-05T17:36:41.533Z,48.80
2023-03-05T17:39:41.106Z,48.87
2023-03-05T17:42:43.136Z,48.86
2023-03-05T17:45:42.606Z,49.01
2023-03-05T17:48:42.474Z,49.06
2023-03-05T17:51:43.060Z,49.04
2023-03-05T17:54:41.769Z,49.00
2023-03-05T17:57:41.717Z,49.05
2023-03-05T18:00:54.500Z,49.07
2023-03-05T18:03:54.475Z,49.15
2023-03-05T18:06:53.510Z,49.20
2023-03-05T18:09:53.575Z,49.24
2023-03-05T18:12:52.424Z,49.26
2023-03-05T18:15:54.251Z,49.45
2023-03-05T18:18:53.808Z,49.58
2023-03-05T18:21:53.071Z,49.73
2023-03-05T18:24:51.391Z,49.76
2023-03-05T18:27:50.578Z,49.92
2023-03-05T18:30:52.721Z,49.92
2023-03-05T18:33:52.356Z,49.83
2023-03-05T18:36:53.605Z,49.77
2023-03-05T18:39:59.070Z,49.78
2023-03-05T18:42:59.880Z,49.90
2023-03-05T18:46:01.181Z,49.85
2023-03-05T18:49:04.847Z,49.92
2023-03-05T18:52:04.460Z,50.07
2023-03-05T18:55:02.060Z,50.13
2023-03-05T18:58:02.245Z,50.20
2023-03-05T19:01:02.240Z,50.29
2023-03-05T19:04:03.996Z,50.45
2023-03-05T19:07:04.105Z,50.54
2023-03-05T19:10:07.795Z,50.71
2023-03-05T19:13:23.190Z,50.89
2023-03-05T19:16:22.602Z,51.01
2023-03-05T19:19:24.644Z,51.17
2023-03-05T19:22:23.811Z,51.12
2023-03-05T19:25:22.906Z,50.88
2023-03-05T19:28:22.569Z,50.69
2023-03-05T19:31:22.366Z,50.69
2023-03-05T19:34:21.748Z,50.62
2023-03-05T19:37:20.836Z,50.60
2023-03-05T19:40:21.760Z,50.56
2023-03-05T19:43:21.080Z,50.60
2023-03-05T19:46:21.465Z,50.62
2023-03-05T19:49:20.278Z,50.67
2023-03-05T19:52:19.499Z,50.73
2023-03-05T19:55:18.809Z,50.89
2023-03-05T19:58:18.006Z,50.95
2023-03-05T20:01:17.014Z,51.03
2023-03-05T20:04:17.594Z,51.20
2023-03-05T20:07:16.939Z,51.27
2023-03-05T20:10:15.316Z,51.38
2023-03-05T20:13:15.853Z,51.49
2023-03-05T20:16:14.807Z,51.63
2023-03-05T20:19:15.206Z,51.86
2023-03-05T20:22:14.549Z,51.97
2023-03-05T20:25:13.677Z,52.16
2023-03-05T20:28:12.022Z,52.25
2023-03-05T20:31:10.830Z,52.28
2023-03-05T20:34:13.433Z,52.38
2023-03-05T20:37:14.066Z,52.30
2023-03-05T20:40:12.352Z,52.32
2023-03-05T20:43:11.753Z,52.38
2023-03-05T20:46:12.711Z,52.42
2023-03-05T20:49:11.795Z,52.53
2023-03-05T20:52:10.792Z,52.47
2023-03-05T20:55:10.400Z,52.58
2023-03-05T20:58:09.615Z,52.59
2023-03-05T21:01:08.164Z,52.63
2023-03-05T21:04:06.695Z,52.75
2023-03-05T21:07:04.852Z,52.78
2023-03-05T21:10:04.362Z,52.89
2023-03-05T21:13:03.652Z,52.94
2023-03-05T21:16:01.614Z,53.04
2023-03-05T21:18:59.115Z,53.14
2023-03-05T21:21:58.099Z,53.19
2023-03-05T21:25:02.348Z,53.28
2023-03-05T21:28:00.997Z,53.30
2023-03-05T21:30:59.464Z,53.44
2023-03-05T21:33:58.273Z,53.54
2023-03-05T21:36:56.764Z,53.61
2023-03-05T21:39:54.274Z,53.52
2023-03-05T21:42:53.113Z,53.59
2023-03-05T21:45:52.631Z,53.71
2023-03-05T21:48:50.510Z,53.72
2023-03-05T21:52:01.086Z,53.78
2023-03-05T21:54:59.589Z,53.88
2023-03-05T21:57:57.100Z,53.87
2023-03-05T22:00:54.784Z,53.96
2023-03-05T22:03:52.383Z,54.08
2023-03-05T22:06:50.138Z,54.15
2023-03-05T22:09:47.860Z,54.21
2023-03-05T22:12:54.458Z,54.22
2023-03-05T22:15:52.250Z,54.24
2023-03-05T22:18:49.893Z,54.30
2023-03-05T22:21:47.339Z,54.35
2023-03-05T22:24:44.957Z,54.39
2023-03-05T22:27:42.402Z,54.46
2023-03-05T22:30:40.472Z,54.50
2023-03-05T22:33:38.014Z,54.48
2023-03-05T22:36:35.749Z,54.42
2023-03-05T22:39:33.178Z,54.49
2023-03-05T22:42:30.642Z,54.12
2023-03-05T22:45:28.119Z,53.65
2023-03-05T22:48:25.908Z,53.22
2023-03-05T22:51:23.671Z,52.87
2023-03-05T22:54:21.077Z,52.45
2023-03-05T22:57:18.783Z,51.97
2023-03-05T23:00:16.212Z,51.65
2023-03-05T23:03:14.027Z,51.43
2023-03-05T23:06:11.533Z,51.25
2023-03-05T23:09:09.177Z,51.03
2023-03-05T23:12:06.588Z,50.83
2023-03-05T23:15:05.204Z,50.67
2023-03-05T23:18:02.845Z,50.53
2023-03-05T23:21:00.276Z,50.49
2023-03-05T23:23:58.033Z,50.44
2023-03-05T23:26:55.482Z,50.47
2023-03-05T23:30:06.271Z,50.46
2023-03-05T23:33:04.260Z,50.42
2023-03-05T23:36:01.992Z,50.43
2023-03-05T23:38:59.825Z,50.42
2023-03-05T23:41:57.278Z,50.41
2023-03-05T23:44:55.762Z,50.38
2023-03-05T23:47:53.275Z,50.35
2023-03-05T23:50:51.058Z,50.34
2023-03-05T23:53:48.990Z,50.22
2023-03-05T23:56:46.621Z,50.17
2023-03-05T23:59:44.060Z,50.04
